sensor_id;sensor_type;location;lat;lon;timestamp;pressure;altitude;pressure_sealevel;temperature;humidity
70909;BME280;58554;52.006;5.926;2022-12-07T00:01:06;100901.25;;;7.68;67.54
70909;BME280;58554;52.006;5.926;2022-12-07T00:03:36;100893.44;;;7.67;67.32
70909;BME280;58554;52.006;5.926;2022-12-07T00:06:05;100902.97;;;7.69;67.46
70909;BME280;58554;52.006;5.926;2022-12-07T00:08:36;100905.63;;;7.69;67.36
70909;BME280;58554;52.006;5.926;2022-12-07T00:11:04;100900.16;;;7.74;67.10
70909;BME280;58554;52.006;5.926;2022-12-07T00:13:32;100901.78;;;7.77;67.07
70909;BME280;58554;52.006;5.926;2022-12-07T00:16:00;100905.41;;;7.74;67.01
70909;BME280;58554;52.006;5.926;2022-12-07T00:18:27;100908.25;;;7.69;67.11
70909;BME280;58554;52.006;5.926;2022-12-07T00:20:59;100902.41;;;7.63;67.07
70909;BME280;58554;52.006;5.926;2022-12-07T00:23:26;100907.72;;;7.61;66.99
70909;BME280;58554;52.006;5.926;2022-12-07T00:25:55;100899.81;;;7.61;67.06
70909;BME280;58554;52.006;5.926;2022-12-07T00:28:22;100902.66;;;7.57;66.89
70909;BME280;58554;52.006;5.926;2022-12-07T00:30:48;100897.72;;;7.49;67.09
70909;BME280;58554;52.006;5.926;2022-12-07T00:33:15;100897.97;;;7.43;66.98
70909;BME280;58554;52.006;5.926;2022-12-07T00:35:41;100895.63;;;7.35;66.95
70909;BME280;58554;52.006;5.926;2022-12-07T00:38:08;100886.34;;;7.26;67.34
70909;BME280;58554;52.006;5.926;2022-12-07T00:40:34;100883.97;;;7.20;67.19
70909;BME280;58554;52.006;5.926;2022-12-07T00:43:03;100888.44;;;7.18;67.32
70909;BME280;58554;52.006;5.926;2022-12-07T00:45:30;100885.09;;;7.15;67.32
70909;BME280;58554;52.006;5.926;2022-12-07T00:47:56;100878.16;;;7.12;67.27
70909;BME280;58554;52.006;5.926;2022-12-07T00:50:23;100882.63;;;7.10;67.45
70909;BME280;58554;52.006;5.926;2022-12-07T00:52:49;100878.31;;;7.09;67.38
70909;BME280;58554;52.006;5.926;2022-12-07T00:55:16;100878.41;;;7.06;67.36
70909;BME280;58554;52.006;5.926;2022-12-07T00:57:42;100878.41;;;7.06;67.50
70909;BME280;58554;52.006;5.926;2022-12-07T01:00:12;100874.09;;;7.05;67.29
70909;BME280;58554;52.006;5.926;2022-12-07T01:02:39;100871.50;;;7.03;67.21
70909;BME280;58554;52.006;5.926;2022-12-07T01:05:07;100868.22;;;6.98;67.38
70909;BME280;58554;52.006;5.926;2022-12-07T01:07:34;100869.19;;;6.96;67.33
70909;BME280;58554;52.006;5.926;2022-12-07T01:10:01;100874.59;;;6.93;67.36
70909;BME280;58554;52.006;5.926;2022-12-07T01:12:27;100872.06;;;6.89;67.26
70909;BME280;58554;52.006;5.926;2022-12-07T01:14:53;100871.34;;;6.86;67.35
70909;BME280;58554;52.006;5.926;2022-12-07T01:17:23;100875.75;;;6.85;67.34
70909;BME280;58554;52.006;5.926;2022-12-07T01:19:49;100878.41;;;6.85;67.56
70909;BME280;58554;52.006;5.926;2022-12-07T01:22:15;100874.03;;;6.84;67.44
70909;BME280;58554;52.006;5.926;2022-12-07T01:24:42;100874.09;;;6.83;67.28
70909;BME280;58554;52.006;5.926;2022-12-07T01:27:09;100875.13;;;6.79;67.19
70909;BME280;58554;52.006;5.926;2022-12-07T01:29:35;100884.06;;;6.75;67.41
70909;BME280;58554;52.006;5.926;2022-12-07T01:32:02;100885.03;;;6.72;67.38
70909;BME280;58554;52.006;5.926;2022-12-07T01:34:31;100878.97;;;6.70;67.53
70909;BME280;58554;52.006;5.926;2022-12-07T01:36:58;100885.22;;;6.67;67.37
70909;BME280;58554;52.006;5.926;2022-12-07T01:39:24;100883.44;;;6.68;67.49
70909;BME280;58554;52.006;5.926;2022-12-07T01:41:51;100889.69;;;6.65;67.27
70909;BME280;58554;52.006;5.926;2022-12-07T01:44:20;100876.59;;;6.64;67.54
70909;BME280;58554;52.006;5.926;2022-12-07T01:46:49;100880.06;;;6.64;67.57
70909;BME280;58554;52.006;5.926;2022-12-07T01:49:25;100873.97;;;6.64;67.56
70909;BME280;58554;52.006;5.926;2022-12-07T01:52:09;100866.09;;;6.64;67.45
70909;BME280;58554;52.006;5.926;2022-12-07T01:54:44;100872.28;;;6.63;67.34
70909;BME280;58554;52.006;5.926;2022-12-07T01:57:15;100876.59;;;6.64;67.36
70909;BME280;58554;52.006;5.926;2022-12-07T01:59:43;100874.91;;;6.63;67.34
70909;BME280;58554;52.006;5.926;2022-12-07T02:02:18;100877.59;;;6.61;67.55
70909;BME280;58554;52.006;5.926;2022-12-07T02:04:52;100872.38;;;6.60;67.31
70909;BME280;58554;52.006;5.926;2022-12-07T02:07:20;100872.44;;;6.58;67.41
70909;BME280;58554;52.006;5.926;2022-12-07T02:09:49;100867.16;;;6.58;67.49
70909;BME280;58554;52.006;5.926;2022-12-07T02:12:15;100864.69;;;6.55;67.53
70909;BME280;58554;52.006;5.926;2022-12-07T02:14:43;100868.25;;;6.54;67.50
70909;BME280;58554;52.006;5.926;2022-12-07T02:17:14;100864.72;;;6.54;67.55
70909;BME280;58554;52.006;5.926;2022-12-07T02:20:13;100866.47;;;6.55;67.55
70909;BME280;58554;52.006;5.926;2022-12-07T02:23:07;100861.19;;;6.55;67.56
70909;BME280;58554;52.006;5.926;2022-12-07T02:26:03;100856.78;;;6.55;67.45
70909;BME280;58554;52.006;5.926;2022-12-07T02:29:10;100868.16;;;6.56;67.51
70909;BME280;58554;52.006;5.926;2022-12-07T02:31:46;100866.50;;;6.53;67.45
70909;BME280;58554;52.006;5.926;2022-12-07T02:34:28;100875.38;;;6.50;67.43
70909;BME280;58554;52.006;5.926;2022-12-07T02:37:05;100864.06;;;6.48;67.20
70909;BME280;58554;52.006;5.926;2022-12-07T02:39:44;100877.25;;;6.47;67.39
70909;BME280;58554;52.006;5.926;2022-12-07T02:42:21;100870.31;;;6.46;67.43
70909;BME280;58554;52.006;5.926;2022-12-07T02:44:58;100872.19;;;6.42;67.33
70909;BME280;58554;52.006;5.926;2022-12-07T02:47:28;100869.66;;;6.39;67.08
70909;BME280;58554;52.006;5.926;2022-12-07T02:49:58;100869.84;;;6.35;67.11
70909;BME280;58554;52.006;5.926;2022-12-07T02:52:28;100864.63;;;6.33;67.07
70909;BME280;58554;52.006;5.926;2022-12-07T02:54:54;100862.16;;;6.30;67.21
70909;BME280;58554;52.006;5.926;2022-12-07T02:57:33;100861.53;;;6.23;67.15
70909;BME280;58554;52.006;5.926;2022-12-07T03:00:14;100865.13;;;6.21;67.39
70909;BME280;58554;52.006;5.926;2022-12-07T03:02:50;100860.72;;;6.21;67.42
70909;BME280;58554;52.006;5.926;2022-12-07T03:05:38;100862.50;;;6.21;67.43
70909;BME280;58554;52.006;5.926;2022-12-07T03:08:24;100870.31;;;6.22;67.38
70909;BME280;58554;52.006;5.926;2022-12-07T03:11:03;100866.69;;;6.25;67.45
70909;BME280;58554;52.006;5.926;2022-12-07T03:13:35;100871.00;;;6.27;67.42
70909;BME280;58554;52.006;5.926;2022-12-07T03:16:14;100876.03;;;6.34;67.44
70909;BME280;58554;52.006;5.926;2022-12-07T03:18:46;100869.78;;;6.36;67.28
70909;BME280;58554;52.006;5.926;2022-12-07T03:21:19;100867.97;;;6.38;67.38
70909;BME280;58554;52.006;5.926;2022-12-07T03:23:51;100866.13;;;6.40;67.39
70909;BME280;58554;52.006;5.926;2022-12-07T03:26:26;100870.41;;;6.43;67.14
70909;BME280;58554;52.006;5.926;2022-12-07T03:29:10;100860.69;;;6.45;67.25
70909;BME280;58554;52.006;5.926;2022-12-07T03:31:46;100867.78;;;6.43;67.20
70909;BME280;58554;52.006;5.926;2022-12-07T03:34:21;100859.94;;;6.41;67.21
70909;BME280;58554;52.006;5.926;2022-12-07T03:36:56;100859.94;;;6.41;67.14
70909;BME280;58554;52.006;5.926;2022-12-07T03:39:32;100853.81;;;6.42;67.35
70909;BME280;58554;52.006;5.926;2022-12-07T03:42:06;100848.34;;;6.47;67.31
70909;BME280;58554;52.006;5.926;2022-12-07T03:44:36;100843.91;;;6.49;67.18
70909;BME280;58554;52.006;5.926;2022-12-07T03:47:12;100843.00;;;6.50;67.30
70909;BME280;58554;52.006;5.926;2022-12-07T03:49:51;100842.03;;;6.53;67.04
70909;BME280;58554;52.006;5.926;2022-12-07T03:52:28;100845.63;;;6.50;66.79
70909;BME280;58554;52.006;5.926;2022-12-07T03:55:04;100853.63;;;6.47;66.93
70909;BME280;58554;52.006;5.926;2022-12-07T03:57:38;100851.00;;;6.47;67.06
70909;BME280;58554;52.006;5.926;2022-12-07T04:00:11;100851.84;;;6.47;67.02
70909;BME280;58554;52.006;5.926;2022-12-07T04:02:42;100842.22;;;6.48;67.29
70909;BME280;58554;52.006;5.926;2022-12-07T04:05:09;100852.72;;;6.48;67.08
70909;BME280;58554;52.006;5.926;2022-12-07T04:07:36;100842.22;;;6.48;67.21
70909;BME280;58554;52.006;5.926;2022-12-07T04:10:05;100839.56;;;6.48;67.21
70909;BME280;58554;52.006;5.926;2022-12-07T04:12:32;100849.22;;;6.47;67.05
70909;BME280;58554;52.006;5.926;2022-12-07T04:14:59;100836.16;;;6.46;67.08
70909;BME280;58554;52.006;5.926;2022-12-07T04:17:25;100831.75;;;6.46;67.09
70909;BME280;58554;52.006;5.926;2022-12-07T04:19:54;100844.03;;;6.46;67.15
70909;BME280;58554;52.006;5.926;2022-12-07T04:22:21;100836.22;;;6.44;67.02
70909;BME280;58554;52.006;5.926;2022-12-07T04:24:47;100842.38;;;6.43;67.00
70909;BME280;58554;52.006;5.926;2022-12-07T04:27:14;100843.34;;;6.41;67.13
70909;BME280;58554;52.006;5.926;2022-12-07T04:29:40;100843.34;;;6.41;67.08
70909;BME280;58554;52.006;5.926;2022-12-07T04:32:07;100848.59;;;6.41;67.04
70909;BME280;58554;52.006;5.926;2022-12-07T04:34:34;100842.53;;;6.39;66.96
70909;BME280;58554;52.006;5.926;2022-12-07T04:37:03;100847.75;;;6.40;67.26
70909;BME280;58554;52.006;5.926;2022-12-07T04:39:31;100846.03;;;6.39;67.14
70909;BME280;58554;52.006;5.926;2022-12-07T04:42:00;100847.75;;;6.40;67.01
70909;BME280;58554;52.006;5.926;2022-12-07T04:44:28;100842.53;;;6.39;66.99
70909;BME280;58554;52.006;5.926;2022-12-07T04:46:55;100832.88;;;6.39;67.26
70909;BME280;58554;52.006;5.926;2022-12-07T04:49:22;100839.88;;;6.40;67.08
70909;BME280;58554;52.006;5.926;2022-12-07T04:51:50;100828.44;;;6.41;67.27
70909;BME280;58554;52.006;5.926;2022-12-07T04:54:19;100825.81;;;6.41;67.35
70909;BME280;58554;52.006;5.926;2022-12-07T04:56:46;100825.81;;;6.41;67.05
70909;BME280;58554;52.006;5.926;2022-12-07T04:59:15;100833.63;;;6.43;67.53
70909;BME280;58554;52.006;5.926;2022-12-07T05:01:43;100843.25;;;6.44;67.08
70909;BME280;58554;52.006;5.926;2022-12-07T05:04:09;100828.28;;;6.46;67.08
70909;BME280;58554;52.006;5.926;2022-12-07T05:06:36;100829.00;;;6.49;67.13
70909;BME280;58554;52.006;5.926;2022-12-07T05:09:03;100822.88;;;6.49;66.96
70909;BME280;58554;52.006;5.926;2022-12-07T05:11:33;100824.53;;;6.52;67.18
70909;BME280;58554;52.006;5.926;2022-12-07T05:14:00;100818.47;;;6.49;67.02
70909;BME280;58554;52.006;5.926;2022-12-07T05:16:27;100821.09;;;6.49;66.96
70909;BME280;58554;52.006;5.926;2022-12-07T05:18:55;100824.66;;;6.48;66.81
70909;BME280;58554;52.006;5.926;2022-12-07T05:21:21;100818.63;;;6.46;66.62
70909;BME280;58554;52.006;5.926;2022-12-07T05:23:48;100820.44;;;6.44;66.69
70909;BME280;58554;52.006;5.926;2022-12-07T05:26:15;100824.91;;;6.42;66.72
70909;BME280;58554;52.006;5.926;2022-12-07T05:28:44;100819.69;;;6.41;66.90
70909;BME280;58554;52.006;5.926;2022-12-07T05:31:11;100826.59;;;6.43;66.83
70909;BME280;58554;52.006;5.926;2022-12-07T05:33:37;100826.75;;;6.40;66.70
70909;BME280;58554;52.006;5.926;2022-12-07T05:36:04;100833.13;;;6.33;66.71
70909;BME280;58554;52.006;5.926;2022-12-07T05:38:31;100835.09;;;6.28;66.72
70909;BME280;58554;52.006;5.926;2022-12-07T05:41:00;100830.88;;;6.24;67.07
70909;BME280;58554;52.006;5.926;2022-12-07T05:43:27;100840.44;;;6.25;67.10
70909;BME280;58554;52.006;5.926;2022-12-07T05:45:56;100825.66;;;6.22;67.01
70909;BME280;58554;52.006;5.926;2022-12-07T05:48:24;100830.03;;;6.23;66.98
70909;BME280;58554;52.006;5.926;2022-12-07T05:50:52;100821.25;;;6.23;67.38
70909;BME280;58554;52.006;5.926;2022-12-07T05:53:19;100827.44;;;6.22;67.02
70909;BME280;58554;52.006;5.926;2022-12-07T05:55:46;100824.94;;;6.19;67.12
70909;BME280;58554;52.006;5.926;2022-12-07T05:58:12;100831.09;;;6.18;67.18
70909;BME280;58554;52.006;5.926;2022-12-07T06:00:39;100829.31;;;6.18;67.19
70909;BME280;58554;52.006;5.926;2022-12-07T06:03:08;100824.81;;;6.22;67.11
70909;BME280;58554;52.006;5.926;2022-12-07T06:05:34;100816.00;;;6.23;67.18
70909;BME280;58554;52.006;5.926;2022-12-07T06:08:01;100821.22;;;6.24;66.89
70909;BME280;58554;52.006;5.926;2022-12-07T06:10:27;100817.69;;;6.25;66.95
70909;BME280;58554;52.006;5.926;2022-12-07T06:12:53;100811.50;;;6.26;66.66
70909;BME280;58554;52.006;5.926;2022-12-07T06:15:20;100821.22;;;6.24;66.87
70909;BME280;58554;52.006;5.926;2022-12-07T06:17:47;100817.78;;;6.22;66.81
70909;BME280;58554;52.006;5.926;2022-12-07T06:20:16;100821.41;;;6.20;66.89
70909;BME280;58554;52.006;5.926;2022-12-07T06:22:43;100820.59;;;6.18;66.86
70909;BME280;58554;52.006;5.926;2022-12-07T06:25:09;100818.91;;;6.17;66.86
70909;BME280;58554;52.006;5.926;2022-12-07T06:27:35;100824.16;;;6.17;66.83
70909;BME280;58554;52.006;5.926;2022-12-07T06:30:03;100828.47;;;6.18;66.86
70909;BME280;58554;52.006;5.926;2022-12-07T06:32:31;100824.16;;;6.17;66.74
70909;BME280;58554;52.006;5.926;2022-12-07T06:34:57;100824.25;;;6.14;66.64
70909;BME280;58554;52.006;5.926;2022-12-07T06:37:27;100826.94;;;6.12;66.80
70909;BME280;58554;52.006;5.926;2022-12-07T06:39:53;100830.44;;;6.13;66.83
70909;BME280;58554;52.006;5.926;2022-12-07T06:42:20;100827.81;;;6.13;66.80
70909;BME280;58554;52.006;5.926;2022-12-07T06:44:46;100823.50;;;6.10;66.77
70909;BME280;58554;52.006;5.926;2022-12-07T06:47:13;100823.69;;;6.05;66.68
70909;BME280;58554;52.006;5.926;2022-12-07T06:49:39;100837.66;;;6.06;66.76
70909;BME280;58554;52.006;5.926;2022-12-07T06:52:06;100836.00;;;6.03;66.63
70909;BME280;58554;52.006;5.926;2022-12-07T06:54:35;100834.41;;;5.99;66.73
70909;BME280;58554;52.006;5.926;2022-12-07T06:57:01;100831.03;;;5.96;66.78
70909;BME280;58554;52.006;5.926;2022-12-07T06:59:28;100834.53;;;5.96;66.92
70909;BME280;58554;52.006;5.926;2022-12-07T07:01:54;100828.41;;;5.96;67.04
70909;BME280;58554;52.006;5.926;2022-12-07T07:04:20;100827.69;;;5.92;66.79
70909;BME280;58554;52.006;5.926;2022-12-07T07:06:47;100826.00;;;5.89;66.89
70909;BME280;58554;52.006;5.926;2022-12-07T07:09:13;100830.41;;;5.89;66.96
70909;BME280;58554;52.006;5.926;2022-12-07T07:11:42;100831.25;;;5.89;66.83
70909;BME280;58554;52.006;5.926;2022-12-07T07:14:09;100832.13;;;5.90;66.95
70909;BME280;58554;52.006;5.926;2022-12-07T07:16:35;100837.31;;;5.92;66.95
70909;BME280;58554;52.006;5.926;2022-12-07T07:19:02;100831.22;;;5.91;66.90
70909;BME280;58554;52.006;5.926;2022-12-07T07:21:28;100839.94;;;5.92;66.72
70909;BME280;58554;52.006;5.926;2022-12-07T07:23:55;100837.31;;;5.92;66.93
70909;BME280;58554;52.006;5.926;2022-12-07T07:26:21;100833.84;;;5.91;66.70
70909;BME280;58554;52.006;5.926;2022-12-07T07:28:50;100830.38;;;5.91;66.65
70909;BME280;58554;52.006;5.926;2022-12-07T07:31:17;100832.13;;;5.90;66.61
70909;BME280;58554;52.006;5.926;2022-12-07T07:33:45;100840.91;;;5.89;66.48
70909;BME280;58554;52.006;5.926;2022-12-07T07:36:11;100845.47;;;5.84;66.62
70909;BME280;58554;52.006;5.926;2022-12-07T07:38:38;100850.03;;;5.79;66.37
70909;BME280;58554;52.006;5.926;2022-12-07T07:41:05;100840.69;;;5.72;66.37
70909;BME280;58554;52.006;5.926;2022-12-07T07:43:32;100842.81;;;5.60;66.43
70909;BME280;58554;52.006;5.926;2022-12-07T07:46:01;100845.78;;;5.51;66.64
70909;BME280;58554;52.006;5.926;2022-12-07T07:48:27;100849.66;;;5.39;66.69
70909;BME280;58554;52.006;5.926;2022-12-07T07:50:54;100843.91;;;5.30;66.71
70909;BME280;58554;52.006;5.926;2022-12-07T07:53:20;100842.53;;;5.18;66.78
70909;BME280;58554;52.006;5.926;2022-12-07T07:55:53;100852.59;;;5.05;66.89
70909;BME280;58554;52.006;5.926;2022-12-07T07:58:20;100846.78;;;4.94;67.04
70909;BME280;58554;52.006;5.926;2022-12-07T08:00:47;100838.38;;;4.84;67.29
70909;BME280;58554;52.006;5.926;2022-12-07T08:03:16;100836.94;;;4.75;67.20
70909;BME280;58554;52.006;5.926;2022-12-07T08:05:43;100843.38;;;4.65;67.61
70909;BME280;58554;52.006;5.926;2022-12-07T08:08:09;100847.06;;;4.58;67.71
70909;BME280;58554;52.006;5.926;2022-12-07T08:10:36;100855.19;;;4.50;67.81
70909;BME280;58554;52.006;5.926;2022-12-07T08:13:03;100855.41;;;4.42;68.02
70909;BME280;58554;52.006;5.926;2022-12-07T08:15:30;100864.28;;;4.37;67.97
70909;BME280;58554;52.006;5.926;2022-12-07T08:17:57;100858.41;;;4.28;68.12
70909;BME280;58554;52.006;5.926;2022-12-07T08:20:26;100872.50;;;4.24;68.29
70909;BME280;58554;52.006;5.926;2022-12-07T08:22:55;100875.19;;;4.23;68.63
70909;BME280;58554;52.006;5.926;2022-12-07T08:25:22;100875.25;;;4.20;68.73
70909;BME280;58554;52.006;5.926;2022-12-07T08:27:50;100887.56;;;4.16;68.75
70909;BME280;58554;52.006;5.926;2022-12-07T08:30:18;100877.16;;;4.15;68.81
70909;BME280;58554;52.006;5.926;2022-12-07T08:32:46;100877.22;;;4.13;69.08
70909;BME280;58554;52.006;5.926;2022-12-07T08:35:14;100888.63;;;4.11;69.22
70909;BME280;58554;52.006;5.926;2022-12-07T08:37:44;100873.91;;;4.06;69.17
70909;BME280;58554;52.006;5.926;2022-12-07T08:40:13;100868.75;;;4.03;69.39
70909;BME280;58554;52.006;5.926;2022-12-07T08:42:40;100862.66;;;4.03;69.51
70909;BME280;58554;52.006;5.926;2022-12-07T08:45:09;100872.31;;;4.01;69.41
70909;BME280;58554;52.006;5.926;2022-12-07T08:47:41;100875.00;;;3.98;69.64
70909;BME280;58554;52.006;5.926;2022-12-07T08:50:12;100877.63;;;3.98;69.79
70909;BME280;58554;52.006;5.926;2022-12-07T08:52:44;100867.22;;;3.96;69.78
70909;BME280;58554;52.006;5.926;2022-12-07T08:55:14;100869.84;;;3.96;69.88
70909;BME280;58554;52.006;5.926;2022-12-07T08:57:40;100869.84;;;3.96;69.76
70909;BME280;58554;52.006;5.926;2022-12-07T09:00:08;100872.47;;;3.96;69.93
70909;BME280;58554;52.006;5.926;2022-12-07T09:02:36;100874.25;;;3.94;70.02
70909;BME280;58554;52.006;5.926;2022-12-07T09:05:03;100875.97;;;3.95;70.14
70909;BME280;58554;52.006;5.926;2022-12-07T09:07:31;100879.38;;;3.97;70.00
70909;BME280;58554;52.006;5.926;2022-12-07T09:10:04;100874.97;;;3.99;70.25
70909;BME280;58554;52.006;5.926;2022-12-07T09:12:31;100873.22;;;4.00;70.26
70909;BME280;58554;52.006;5.926;2022-12-07T09:14:58;100866.25;;;4.00;70.37
70909;BME280;58554;52.006;5.926;2022-12-07T09:17:24;100863.56;;;4.02;70.43
70909;BME280;58554;52.006;5.926;2022-12-07T09:19:50;100877.53;;;4.02;70.49
70909;BME280;58554;52.006;5.926;2022-12-07T09:22:17;100879.16;;;4.06;70.32
70909;BME280;58554;52.006;5.926;2022-12-07T09:24:44;100875.63;;;4.07;70.41
70909;BME280;58554;52.006;5.926;2022-12-07T09:27:13;100877.25;;;4.12;70.43
70909;BME280;58554;52.006;5.926;2022-12-07T09:29:39;100878.91;;;4.14;70.48
70909;BME280;58554;52.006;5.926;2022-12-07T09:32:06;100884.91;;;4.18;70.74
70909;BME280;58554;52.006;5.926;2022-12-07T09:34:33;100882.22;;;4.21;70.69
70909;BME280;58554;52.006;5.926;2022-12-07T09:37:01;100873.47;;;4.22;70.64
70909;BME280;58554;52.006;5.926;2022-12-07T09:39:28;100870.84;;;4.22;70.95
70909;BME280;58554;52.006;5.926;2022-12-07T09:41:54;100877.81;;;4.23;70.79
70909;BME280;58554;52.006;5.926;2022-12-07T09:44:27;100866.47;;;4.22;70.76
70909;BME280;58554;52.006;5.926;2022-12-07T09:46:54;100864.72;;;4.23;70.87
70909;BME280;58554;52.006;5.926;2022-12-07T09:49:23;100860.38;;;4.22;71.10
70909;BME280;58554;52.006;5.926;2022-12-07T09:52:00;100867.34;;;4.23;71.12
70909;BME280;58554;52.006;5.926;2022-12-07T09:54:29;100862.94;;;4.23;71.01
70909;BME280;58554;52.006;5.926;2022-12-07T09:56:56;100857.72;;;4.23;71.26
70909;BME280;58554;52.006;5.926;2022-12-07T09:59:23;100847.28;;;4.22;71.04
70909;BME280;58554;52.006;5.926;2022-12-07T10:01:52;100856.88;;;4.23;71.10
70909;BME280;58554;52.006;5.926;2022-12-07T10:04:20;100852.47;;;4.23;70.99
70909;BME280;58554;52.006;5.926;2022-12-07T10:06:50;100850.75;;;4.22;71.23
70909;BME280;58554;52.006;5.926;2022-12-07T10:09:19;100848.94;;;4.24;71.31
70909;BME280;58554;52.006;5.926;2022-12-07T10:12:08;100852.31;;;4.30;71.41
70909;BME280;58554;52.006;5.926;2022-12-07T10:14:37;100857.44;;;4.33;71.31
70909;BME280;58554;52.006;5.926;2022-12-07T10:17:31;100850.44;;;4.33;71.37
70909;BME280;58554;52.006;5.926;2022-12-07T10:20:21;100843.34;;;4.37;71.40
70909;BME280;58554;52.006;5.926;2022-12-07T10:22:58;100845.94;;;4.38;71.33
70909;BME280;58554;52.006;5.926;2022-12-07T10:25:29;100847.63;;;4.39;71.49
70909;BME280;58554;52.006;5.926;2022-12-07T10:28:03;100844.16;;;4.39;71.47
70909;BME280;58554;52.006;5.926;2022-12-07T10:30:51;100836.25;;;4.40;71.34
70909;BME280;58554;52.006;5.926;2022-12-07T10:33:47;100830.91;;;4.43;71.40
70909;BME280;58554;52.006;5.926;2022-12-07T10:36:19;100832.53;;;4.47;71.46
70909;BME280;58554;52.006;5.926;2022-12-07T10:38:51;100832.53;;;4.47;71.36
70909;BME280;58554;52.006;5.926;2022-12-07T10:41:19;100826.41;;;4.48;71.40
70909;BME280;58554;52.006;5.926;2022-12-07T10:43:54;100822.78;;;4.53;71.34
70909;BME280;58554;52.006;5.926;2022-12-07T10:49:37;100826.13;;;4.58;71.55
70909;BME280;58554;52.006;5.926;2022-12-07T10:52:40;100824.16;;;4.64;71.33
70909;BME280;58554;52.006;5.926;2022-12-07T10:55:21;100823.09;;;4.70;71.42
70909;BME280;58554;52.006;5.926;2022-12-07T10:58:18;100814.28;;;4.73;71.17
70909;BME280;58554;52.006;5.926;2022-12-07T11:01:02;100808.13;;;4.75;71.10
70909;BME280;58554;52.006;5.926;2022-12-07T11:03:49;100812.38;;;4.78;71.20
70909;BME280;58554;52.006;5.926;2022-12-07T11:06:33;100812.44;;;4.76;71.17
70909;BME280;58554;52.006;5.926;2022-12-07T11:09:22;100802.88;;;4.75;71.03
70909;BME280;58554;52.006;5.926;2022-12-07T11:12:10;100799.34;;;4.76;71.20
70909;BME280;58554;52.006;5.926;2022-12-07T11:14:53;100802.88;;;4.75;70.89
70909;BME280;58554;52.006;5.926;2022-12-07T11:17:34;100793.28;;;4.74;70.89
70909;BME280;58554;52.006;5.926;2022-12-07T11:20:20;100794.22;;;4.73;71.18
70909;BME280;58554;52.006;5.926;2022-12-07T11:23:04;100787.19;;;4.74;71.20
70909;BME280;58554;52.006;5.926;2022-12-07T11:25:49;100786.28;;;4.75;71.12
70909;BME280;58554;52.006;5.926;2022-12-07T11:28:32;100787.16;;;4.75;71.25
70909;BME280;58554;52.006;5.926;2022-12-07T11:31:20;100790.66;;;4.74;71.24
70909;BME280;58554;52.006;5.926;2022-12-07T11:33:59;100775.81;;;4.75;71.14
70909;BME280;58554;52.006;5.926;2022-12-07T11:36:37;100782.78;;;4.76;71.33
70909;BME280;58554;52.006;5.926;2022-12-07T11:39:25;100775.72;;;4.78;71.32
70909;BME280;58554;52.006;5.926;2022-12-07T11:42:01;100776.56;;;4.78;71.36
70909;BME280;58554;52.006;5.926;2022-12-07T11:44:36;100772.09;;;4.82;71.63
70909;BME280;58554;52.006;5.926;2022-12-07T11:47:14;100769.44;;;4.83;71.29
70909;BME280;58554;52.006;5.926;2022-12-07T11:49:52;100768.50;;;4.84;71.32
70909;BME280;58554;52.006;5.926;2022-12-07T11:52:30;100768.47;;;4.86;71.56
70909;BME280;58554;52.006;5.926;2022-12-07T11:55:19;100766.59;;;4.90;71.33
70909;BME280;58554;52.006;5.926;2022-12-07T11:58:03;100761.28;;;4.91;71.43
70909;BME280;58554;52.006;5.926;2022-12-07T12:00:39;100760.41;;;4.92;71.38
70909;BME280;58554;52.006;5.926;2022-12-07T12:03:11;100756.84;;;4.95;71.32
70909;BME280;58554;52.006;5.926;2022-12-07T12:05:41;100754.19;;;4.96;71.32
70909;BME280;58554;52.006;5.926;2022-12-07T12:08:13;100759.47;;;4.95;71.26
70909;BME280;58554;52.006;5.926;2022-12-07T12:10:55;100742.84;;;4.94;71.46
70909;BME280;58554;52.006;5.926;2022-12-07T12:13:43;100744.59;;;4.94;71.33
70909;BME280;58554;52.006;5.926;2022-12-07T12:19:58;100745.22;;;5.02;71.15
70909;BME280;58554;52.006;5.926;2022-12-07T12:22:35;100736.31;;;5.07;71.21
70909;BME280;58554;52.006;5.926;2022-12-07T12:25:11;100740.34;;;5.16;71.31
70909;BME280;58554;52.006;5.926;2022-12-07T12:27:49;100732.22;;;5.24;71.24
70909;BME280;58554;52.006;5.926;2022-12-07T12:30:29;100732.84;;;5.31;71.10
70909;BME280;58554;52.006;5.926;2022-12-07T12:33:12;100733.63;;;5.34;71.32
70909;BME280;58554;52.006;5.926;2022-12-07T12:35:46;100729.91;;;5.40;71.11
70909;BME280;58554;52.006;5.926;2022-12-07T12:38:33;100732.16;;;5.51;71.09
70909;BME280;58554;52.006;5.926;2022-12-07T12:45:03;100717.47;;;5.68;71.04
70909;BME280;58554;52.006;5.926;2022-12-07T12:47:55;100716.38;;;5.74;71.16
70909;BME280;58554;52.006;5.926;2022-12-07T12:50:28;100712.78;;;5.77;70.76
70909;BME280;58554;52.006;5.926;2022-12-07T12:53:20;100711.03;;;5.77;70.62
70909;BME280;58554;52.006;5.926;2022-12-07T12:56:14;100704.88;;;5.78;70.76
70909;BME280;58554;52.006;5.926;2022-12-07T12:59:26;100704.91;;;5.77;70.72
70909;BME280;58554;52.006;5.926;2022-12-07T13:02:09;100697.94;;;5.77;70.47
70909;BME280;58554;52.006;5.926;2022-12-07T13:04:52;100697.94;;;5.77;70.52
70909;BME280;58554;52.006;5.926;2022-12-07T13:10:34;100689.19;;;5.77;70.39
70909;BME280;58554;52.006;5.926;2022-12-07T13:13:31;100681.38;;;5.75;70.52
70909;BME280;58554;52.006;5.926;2022-12-07T13:22:40;100673.19;;;5.83;70.28
70909;BME280;58554;52.006;5.926;2022-12-07T13:25:23;100674.78;;;5.87;70.21
70909;BME280;58554;52.006;5.926;2022-12-07T13:28:02;100675.53;;;5.91;70.24
70909;BME280;58554;52.006;5.926;2022-12-07T13:30:45;100663.06;;;5.96;69.97
70909;BME280;58554;52.006;5.926;2022-12-07T13:33:17;100668.22;;;5.99;69.98
70909;BME280;58554;52.006;5.926;2022-12-07T13:35:44;100657.56;;;6.02;69.86
70909;BME280;58554;52.006;5.926;2022-12-07T13:38:24;100654.03;;;6.03;69.75
70909;BME280;58554;52.006;5.926;2022-12-07T13:41:12;100653.13;;;6.04;69.90
70909;BME280;58554;52.006;5.926;2022-12-07T13:43:46;100652.22;;;6.05;69.91
70909;BME280;58554;52.006;5.926;2022-12-07T13:46:17;100644.19;;;6.08;69.87